Time;durP1;ratioP1;P1;durP2;ratioP2;P2;SDS_P1;SDS_P2;PMS_P1;PMS_P2;Temp;Humidity;BMP_temperature;BMP_pressure;BME280_temperature;BME280_humidity;BME280_pressure;Samples;Min_cycle;Max_cycle;Signal;HPM_P1;HPM_P2
2023/02/02 00:00:45;;;;;;;11.77;2.50;;;3.90;78.00;;;;;;4976651;28;20097;-78
2023/02/02 00:03:11;;;;;;;11.90;2.83;;;3.90;78.20;;;;;;4976606;28;20475;-77
2023/02/02 00:05:36;;;;;;;16.52;2.72;;;3.90;78.10;;;;;;4976201;28;20050;-77
2023/02/02 00:08:02;;;;;;;11.55;2.30;;;3.90;78.60;;;;;;4976096;28;20038;-77
2023/02/02 00:10:28;;;;;;;9.85;2.00;;;3.80;78.70;;;;;;4976486;28;20121;-77
2023/02/02 00:12:56;;;;;;;7.72;2.20;;;3.80;78.80;;;;;;4994010;28;20490;-77
2023/02/02 00:15:23;;;;;;;13.35;2.38;;;3.80;78.50;;;;;;4999660;28;20034;-77
2023/02/02 00:17:48;;;;;;;10.82;2.05;;;3.80;79.60;;;;;;4962325;28;20037;-77
2023/02/02 00:20:14;;;;;;;15.40;2.72;;;3.90;78.10;;;;;;4957198;28;20026;-77
2023/02/02 00:22:40;;;;;;;9.07;1.77;;;3.90;77.40;;;;;;4941117;28;20034;-77
2023/02/02 00:25:06;;;;;;;13.70;3.17;;;3.90;77.10;;;;;;4940776;28;20492;-78
2023/02/02 00:27:35;;;;;;;13.30;2.85;;;3.90;77.10;;;;;;4974263;28;20039;-77
2023/02/02 00:30:02;;;;;;;9.45;2.05;;;3.90;77.80;;;;;;4957136;28;20054;-74
2023/02/02 00:32:28;;;;;;;8.55;1.90;;;3.90;77.30;;;;;;4957006;28;20027;-76
2023/02/02 00:34:54;;;;;;;9.02;2.10;;;3.90;78.10;;;;;;4956819;28;20142;-74
2023/02/02 00:37:19;;;;;;;15.13;2.00;;;3.90;77.40;;;;;;4940798;28;20496;-77
2023/02/02 00:39:45;;;;;;;12.43;2.55;;;3.90;77.00;;;;;;4956625;28;20027;-74
2023/02/02 00:42:11;;;;;;;9.55;2.28;;;3.90;76.90;;;;;;4957016;28;20045;-74
2023/02/02 00:47:21;;;;;;;11.35;3.13;;;3.90;77.10;;;;;;4974280;28;20045;-76
2023/02/02 00:49:47;;;;;;;9.38;2.30;;;3.90;76.90;;;;;;4956713;28;20070;-75
2023/02/02 00:52:13;;;;;;;11.48;2.05;;;4.00;76.80;;;;;;4956493;28;20034;-74
2023/02/02 00:54:38;;;;;;;6.55;1.80;;;4.00;77.00;;;;;;4956900;28;20066;-78
2023/02/02 00:57:04;;;;;;;9.32;2.30;;;4.00;77.40;;;;;;4956809;28;20531;-75
2023/02/02 00:59:29;;;;;;;12.80;2.03;;;4.00;77.60;;;;;;4956696;28;20432;-74
2023/02/02 01:01:55;;;;;;;11.13;2.30;;;4.00;78.00;;;;;;4956398;28;20027;-75
2023/02/02 01:04:20;;;;;;;5.40;1.90;;;3.90;78.90;;;;;;4959117;28;20074;-75
2023/02/02 01:06:46;;;;;;;8.23;1.60;;;3.90;79.30;;;;;;4960499;28;20133;-74
2023/02/02 01:09:13;;;;;;;7.28;1.67;;;3.90;79.60;;;;;;4960535;28;20030;-75
2023/02/02 01:11:38;;;;;;;7.00;1.80;;;3.90;79.80;;;;;;4960284;28;20039;-76
2023/02/02 01:14:04;;;;;;;9.02;2.00;;;3.90;79.70;;;;;;4960302;28;20592;-75
2023/02/02 01:16:30;;;;;;;9.60;1.83;;;3.90;79.50;;;;;;4960213;28;20023;-75
2023/02/02 01:18:56;;;;;;;7.97;1.90;;;3.90;79.40;;;;;;4960178;28;20030;-75
2023/02/02 01:21:22;;;;;;;14.57;2.08;;;3.90;79.50;;;;;;4960503;28;20114;-75
2023/02/02 01:23:47;;;;;;;10.60;2.08;;;3.80;79.40;;;;;;4959810;28;20038;-75
2023/02/02 01:26:14;;;;;;;13.95;2.42;;;3.80;79.50;;;;;;4960181;28;20477;-75
2023/02/02 01:28:40;;;;;;;6.80;1.90;;;3.80;79.30;;;;;;4960320;28;20125;-77
2023/02/02 01:31:13;;;;;;;8.02;1.88;;;3.90;78.80;;;;;;4959873;28;20495;-77
2023/02/02 01:33:40;;;;;;;9.25;2.25;;;3.90;79.10;;;;;;4959573;28;20121;-74
2023/02/02 01:36:08;;;;;;;11.27;2.38;;;3.90;78.90;;;;;;4959757;28;20114;-74
2023/02/02 01:38:34;;;;;;;11.57;2.70;;;3.90;78.40;;;;;;4943006;28;20499;-77
2023/02/02 01:41:03;;;;;;;9.15;2.00;;;4.00;79.00;;;;;;4959853;28;20042;-76
2023/02/02 01:43:42;;;;;;;9.70;2.85;;;4.00;78.50;;;;;;4960139;28;20041;-75
2023/02/02 01:46:17;;;;;;;11.82;2.05;;;4.00;78.70;;;;;;4959521;28;20037;-75
2023/02/02 01:48:48;;;;;;;10.38;2.30;;;4.00;79.00;;;;;;4943686;28;20035;-75
2023/02/02 01:51:18;;;;;;;11.57;2.70;;;3.90;79.30;;;;;;4959907;28;20034;-76
2023/02/02 01:53:46;;;;;;;9.98;2.22;;;3.90;79.50;;;;;;4959651;28;20027;-76
2023/02/02 01:56:18;;;;;;;14.80;2.58;;;3.90;79.40;;;;;;4959509;28;20101;-76
2023/02/02 01:58:44;;;;;;;12.60;2.30;;;3.90;79.00;;;;;;4959773;28;20101;-76
2023/02/02 02:01:10;;;;;;;10.13;2.70;;;3.90;79.40;;;;;;4959538;28;20070;-76
2023/02/02 02:03:36;;;;;;;6.88;1.70;;;3.90;79.60;;;;;;4959300;28;20145;-76
2023/02/02 02:06:07;;;;;;;9.90;1.90;;;3.90;79.30;;;;;;4959507;28;20062;-76
2023/02/02 02:08:40;;;;;;;6.93;2.00;;;3.90;79.00;;;;;;4959223;28;19914;-76
2023/02/02 02:11:06;;;;;;;8.48;1.83;;;3.90;79.10;;;;;;4959266;28;20050;-76
2023/02/02 02:16:36;;;;;;;7.45;1.67;;;3.90;79.00;;;;;;4976652;28;20034;-76
2023/02/02 02:19:11;;;;;;;9.75;1.98;;;3.90;78.70;;;;;;4959175;28;20038;-76
2023/02/02 02:28:27;;;;;;;7.03;1.65;;;3.90;78.80;;;;;;4978731;28;20074;-75
2023/02/02 02:31:10;;;;;;;8.57;1.77;;;3.90;78.60;;;;;;4978103;28;20022;-75
2023/02/02 02:33:54;;;;;;;7.78;2.42;;;3.90;78.60;;;;;;4958997;28;20022;-75
2023/02/02 02:37:01;;;;;;;9.20;2.15;;;4.00;78.70;;;;;;4958961;28;20046;-75
2023/02/02 02:39:38;;;;;;;12.80;2.35;;;3.90;78.80;;;;;;4922400;28;20062;-77
2023/02/02 02:42:08;;;;;;;10.30;2.42;;;3.90;78.50;;;;;;4958764;28;20037;-77
2023/02/02 02:44:35;;;;;;;10.48;2.15;;;4.00;78.10;;;;;;4958908;28;20031;-77
2023/02/02 02:47:01;;;;;;;13.48;2.63;;;4.00;78.30;;;;;;4958765;28;20074;-76
2023/02/02 02:49:27;;;;;;;6.82;1.70;;;4.00;77.90;;;;;;4958706;28;20074;-75
2023/02/02 02:51:55;;;;;;;6.63;1.77;;;4.00;77.90;;;;;;4958632;28;20019;-75
2023/02/02 02:54:26;;;;;;;8.27;2.08;;;4.00;77.50;;;;;;4958500;28;20023;-76
2023/02/02 02:57:19;;;;;;;12.63;2.15;;;4.10;77.60;;;;;;4958412;28;20415;-79
2023/02/02 02:59:57;;;;;;;13.52;2.67;;;4.10;77.00;;;;;;4958546;28;20476;-77
2023/02/02 03:02:46;;;;;;;12.43;1.98;;;4.10;76.90;;;;;;4958238;28;20019;-77
2023/02/02 03:05:32;;;;;;;7.85;1.73;;;4.20;76.90;;;;;;4958170;28;20034;-78
2023/02/02 03:08:00;;;;;;;11.63;2.55;;;4.20;76.50;;;;;;4958159;28;20610;-78
2023/02/02 03:10:29;;;;;;;12.00;2.15;;;4.20;77.60;;;;;;4958192;28;20027;-78
2023/02/02 03:12:55;;;;;;;6.97;1.90;;;4.20;76.80;;;;;;4958201;28;20117;-78
2023/02/02 03:15:21;;;;;;;8.65;1.73;;;4.30;76.80;;;;;;4957879;28;20125;-78
2023/02/02 03:17:49;;;;;;;10.70;1.98;;;4.30;77.00;;;;;;4957774;28;20023;-80
2023/02/02 03:20:15;;;;;;;7.93;2.00;;;4.20;77.10;;;;;;4957655;28;20030;-79
2023/02/02 03:22:41;;;;;;;8.13;2.28;;;4.20;77.40;;;;;;4958049;28;20130;-77
2023/02/02 03:25:10;;;;;;;7.25;1.40;;;4.30;77.10;;;;;;4957967;28;20530;-77
2023/02/02 03:27:37;;;;;;;9.40;2.30;;;4.20;76.70;;;;;;4957139;28;20141;-76
2023/02/02 03:30:04;;;;;;;7.13;1.83;;;4.20;77.30;;;;;;4957945;28;20027;-77
2023/02/02 03:32:30;;;;;;;9.88;1.95;;;4.20;76.90;;;;;;4957726;28;20035;-77
2023/02/02 03:34:55;;;;;;;8.57;2.10;;;4.20;76.90;;;;;;4957871;28;20097;-77
2023/02/02 03:37:21;;;;;;;9.63;1.83;;;4.20;76.80;;;;;;4957605;28;20046;-76
2023/02/02 03:39:46;;;;;;;10.32;2.58;;;4.20;77.00;;;;;;4957560;28;20015;-76
2023/02/02 03:42:13;;;;;;;6.95;1.80;;;4.20;77.20;;;;;;4957537;28;20054;-76
2023/02/02 03:44:39;;;;;;;7.68;1.73;;;4.20;76.90;;;;;;4957571;28;20023;-75
2023/02/02 03:47:04;;;;;;;9.50;2.10;;;4.30;76.60;;;;;;4957578;28;20463;-75
2023/02/02 03:49:31;;;;;;;10.60;1.92;;;4.20;76.60;;;;;;4957846;28;20395;-75
2023/02/02 03:51:56;;;;;;;10.07;1.75;;;4.30;76.70;;;;;;4949827;28;20023;-75
2023/02/02 03:54:22;;;;;;;7.75;1.65;;;4.30;76.40;;;;;;4963971;28;20058;-77
2023/02/02 03:56:47;;;;;;;6.40;1.65;;;4.20;76.60;;;;;;4957410;28;20500;-76
2023/02/02 03:59:13;;;;;;;7.97;1.42;;;4.30;77.00;;;;;;4957334;28;20476;-76
2023/02/02 04:01:39;;;;;;;4.85;1.67;;;4.30;76.60;;;;;;4957595;28;20031;-77
2023/02/02 04:04:04;;;;;;;10.73;2.17;;;4.30;76.80;;;;;;4957703;28;20046;-77
2023/02/02 04:06:30;;;;;;;7.80;1.63;;;4.30;77.00;;;;;;4941226;28;20042;-77
2023/02/02 04:08:56;;;;;;;9.43;2.05;;;4.20;76.80;;;;;;4941239;28;20027;-77
2023/02/02 04:11:21;;;;;;;7.30;1.70;;;4.20;77.20;;;;;;4957369;28;20023;-77
2023/02/02 04:13:47;;;;;;;4.88;1.58;;;4.30;77.00;;;;;;4957043;28;20034;-78
2023/02/02 04:16:12;;;;;;;5.38;1.17;;;4.30;77.10;;;;;;4956961;28;20026;-75
2023/02/02 04:18:38;;;;;;;9.40;1.90;;;4.30;77.10;;;;;;4957196;28;20045;-75
2023/02/02 04:21:05;;;;;;;6.07;1.45;;;4.20;76.90;;;;;;4957093;28;20476;-76
2023/02/02 04:23:31;;;;;;;6.53;1.30;;;4.20;76.90;;;;;;4956973;28;20031;-76
2023/02/02 04:25:57;;;;;;;7.70;1.63;;;4.20;77.20;;;;;;4933160;28;20023;-76
2023/02/02 04:28:24;;;;;;;4.80;1.00;;;4.20;77.40;;;;;;4956677;28;20053;-76
2023/02/02 04:30:51;;;;;;;7.28;1.33;;;4.20;77.00;;;;;;4956450;28;20480;-76
2023/02/02 04:33:16;;;;;;;5.18;1.55;;;4.20;77.20;;;;;;4956948;28;20484;-76
2023/02/02 04:35:43;;;;;;;7.15;1.30;;;4.20;77.00;;;;;;4956933;28;20027;-76
2023/02/02 04:38:08;;;;;;;6.95;2.30;;;4.20;77.00;;;;;;4958019;28;20055;-76
2023/02/02 04:40:38;;;;;;;8.32;2.38;;;4.30;77.20;;;;;;4944852;28;20022;-76
2023/02/02 04:43:04;;;;;;;4.63;1.75;;;4.30;77.00;;;;;;4970831;28;20058;-77
2023/02/02 04:45:31;;;;;;;7.85;1.30;;;4.20;76.80;;;;;;4973390;28;20077;-77
2023/02/02 04:47:57;;;;;;;3.40;1.00;;;4.30;76.80;;;;;;4961020;28;20512;-76
2023/02/02 04:50:22;;;;;;;7.88;1.80;;;4.30;76.80;;;;;;4960679;28;20027;-76
2023/02/02 04:52:48;;;;;;;7.05;1.88;;;4.30;77.10;;;;;;4960390;28;20034;-76
2023/02/02 04:55:15;;;;;;;4.85;1.05;;;4.30;76.90;;;;;;4960565;28;20476;-76
2023/02/02 04:57:42;;;;;;;7.63;1.60;;;4.30;76.50;;;;;;4960110;28;20058;-76
2023/02/02 05:00:10;;;;;;;6.75;1.08;;;4.30;76.40;;;;;;4960684;28;20026;-76
2023/02/02 05:02:39;;;;;;;7.45;2.10;;;4.30;76.30;;;;;;4960426;28;20056;-76
2023/02/02 05:05:07;;;;;;;6.53;1.60;;;4.30;76.70;;;;;;4960293;28;20131;-76
2023/02/02 05:07:32;;;;;;;10.20;1.95;;;4.30;76.80;;;;;;4960104;28;20061;-76
2023/02/02 05:09:58;;;;;;;3.85;1.40;;;4.30;76.90;;;;;;4960220;28;20396;-76
2023/02/02 05:12:23;;;;;;;5.45;1.55;;;4.30;77.00;;;;;;4960167;28;20031;-76
2023/02/02 05:14:49;;;;;;;9.40;3.38;;;4.20;77.20;;;;;;4960336;28;20026;-76
2023/02/02 05:17:15;;;;;;;6.15;2.30;;;4.20;78.10;;;;;;4977502;28;20089;-76
2023/02/02 05:19:42;;;;;;;3.33;1.23;;;4.20;77.10;;;;;;4960117;28;20118;-77
2023/02/02 05:22:08;;;;;;;5.30;1.35;;;4.20;77.50;;;;;;4959969;28;20034;-76
2023/02/02 05:24:33;;;;;;;5.22;1.77;;;4.20;77.80;;;;;;4959733;28;20026;-76
2023/02/02 05:26:59;;;;;;;8.63;1.42;;;4.20;77.70;;;;;;4959865;28;20038;-76
2023/02/02 05:29:29;;;;;;;6.43;1.98;;;4.20;77.70;;;;;;4960164;28;20019;-76
2023/02/02 05:31:56;;;;;;;6.45;2.47;;;4.30;77.60;;;;;;4960060;28;20023;-76
2023/02/02 05:34:22;;;;;;;6.70;1.58;;;4.30;77.30;;;;;;4959814;28;20039;-76
2023/02/02 05:36:48;;;;;;;8.02;1.55;;;4.30;77.30;;;;;;4944049;28;20054;-76
2023/02/02 05:39:14;;;;;;;10.02;1.63;;;4.30;77.20;;;;;;4959678;28;20030;-76
2023/02/02 05:41:40;;;;;;;8.75;1.92;;;4.30;77.40;;;;;;4960037;28;20018;-76
2023/02/02 05:44:05;;;;;;;10.55;1.98;;;4.30;77.20;;;;;;4959789;28;20130;-76
2023/02/02 05:46:31;;;;;;;12.60;1.83;;;4.40;76.80;;;;;;4959733;28;20341;-76
2023/02/02 05:49:07;;;;;;;4.25;1.33;;;4.40;76.70;;;;;;4961708;28;20526;-76
2023/02/02 05:51:39;;;;;;;4.30;1.40;;;4.40;76.90;;;;;;4967836;28;20382;-76
2023/02/02 05:54:04;;;;;;;5.20;2.00;;;4.40;77.00;;;;;;4960279;28;20030;-77
2023/02/02 05:56:30;;;;;;;7.47;3.53;;;4.30;77.20;;;;;;4959581;28;20034;-77
2023/02/02 05:58:55;;;;;;;5.32;1.50;;;4.30;77.50;;;;;;4959892;28;20023;-77
2023/02/02 06:01:21;;;;;;;6.25;1.75;;;4.30;77.70;;;;;;4959529;28;20380;-76
2023/02/02 06:03:47;;;;;;;7.78;1.85;;;4.30;77.80;;;;;;4959408;28;20027;-77
2023/02/02 06:06:13;;;;;;;6.60;1.98;;;4.30;77.80;;;;;;4976641;28;20026;-77
2023/02/02 06:08:38;;;;;;;10.82;2.03;;;4.30;77.80;;;;;;4959134;28;20042;-76
2023/02/02 06:11:12;;;;;;;7.95;2.25;;;4.30;77.80;;;;;;4959037;28;20037;-77
2023/02/02 06:13:38;;;;;;;6.60;1.60;;;4.30;78.00;;;;;;4959010;28;20026;-76
2023/02/02 06:16:04;;;;;;;6.95;1.88;;;4.30;77.90;;;;;;4958890;28;20031;-76
2023/02/02 06:18:30;;;;;;;8.80;1.75;;;4.30;78.10;;;;;;4958907;28;20130;-77
2023/02/02 06:20:59;;;;;;;6.70;1.65;;;4.30;78.10;;;;;;4958712;28;20062;-76
2023/02/02 06:23:25;;;;;;;6.75;2.00;;;4.30;78.00;;;;;;4958634;28;20031;-77
2023/02/02 06:25:51;;;;;;;10.82;2.45;;;4.40;78.90;;;;;;4958559;28;20027;-77
2023/02/02 06:28:17;;;;;;;11.43;2.75;;;4.20;78.30;;;;;;4958055;28;20035;-77
2023/02/02 06:30:43;;;;;;;7.22;1.90;;;4.30;78.50;;;;;;4957677;28;20443;-76
2023/02/02 06:33:09;;;;;;;6.43;1.40;;;4.30;78.40;;;;;;4942026;28;20125;-76
2023/02/02 06:35:34;;;;;;;8.45;2.55;;;4.30;78.30;;;;;;4958106;28;20483;-76
2023/02/02 06:38:00;;;;;;;7.68;1.63;;;4.30;78.20;;;;;;4957794;28;20400;-75
2023/02/02 06:40:26;;;;;;;8.18;2.05;;;4.30;78.30;;;;;;4958420;28;20026;-76
2023/02/02 06:43:00;;;;;;;10.90;2.03;;;4.30;78.30;;;;;;4958165;28;20119;-76
2023/02/02 06:45:26;;;;;;;6.82;1.80;;;4.40;78.30;;;;;;4942826;28;20030;-76
2023/02/02 06:47:52;;;;;;;5.43;1.50;;;4.30;78.20;;;;;;4958025;28;20061;-76
2023/02/02 06:50:18;;;;;;;7.20;2.10;;;4.30;78.70;;;;;;4957605;28;20031;-76
2023/02/02 06:52:49;;;;;;;6.80;1.50;;;4.30;78.80;;;;;;4958333;28;20502;-76
2023/02/02 06:55:15;;;;;;;7.05;1.83;;;4.20;78.70;;;;;;4957982;28;20029;-76
2023/02/02 06:57:41;;;;;;;4.25;1.73;;;4.20;78.80;;;;;;4966401;28;20094;-76
2023/02/02 07:00:07;;;;;;;7.80;2.15;;;4.30;78.70;;;;;;4977874;28;20034;-76
2023/02/02 07:02:34;;;;;;;16.75;5.57;;;4.30;78.80;;;;;;4956963;28;20031;-76
2023/02/02 07:05:00;;;;;;;8.57;2.47;;;4.30;79.00;;;;;;4958019;28;20373;-77
2023/02/02 07:07:25;;;;;;;10.57;2.97;;;4.30;79.10;;;;;;4957902;28;20121;-76
2023/02/02 07:09:51;;;;;;;10.52;3.95;;;4.30;78.80;;;;;;4957629;28;20033;-77
2023/02/02 07:12:18;;;;;;;11.82;4.38;;;4.30;78.80;;;;;;4957642;28;20030;-77
2023/02/02 07:14:44;;;;;;;8.02;2.47;;;4.30;78.80;;;;;;4957292;28;20030;-76
2023/02/02 07:17:10;;;;;;;8.75;2.58;;;4.30;78.60;;;;;;4974545;28;20027;-76
2023/02/02 07:19:36;;;;;;;6.82;2.00;;;4.40;78.40;;;;;;4957455;28;20035;-76
2023/02/02 07:22:03;;;;;;;6.22;2.10;;;4.40;78.30;;;;;;4957501;28;20030;-75
2023/02/02 07:24:29;;;;;;;6.53;2.17;;;4.40;78.30;;;;;;4957688;28;20035;-76
2023/02/02 07:26:56;;;;;;;5.53;1.65;;;4.40;79.20;;;;;;4957243;28;20039;-76
2023/02/02 07:29:22;;;;;;;8.38;1.90;;;4.30;80.60;;;;;;4957211;28;20117;-76
2023/02/02 07:31:48;;;;;;;6.55;1.73;;;4.30;81.20;;;;;;4956934;28;20123;-76
2023/02/02 07:34:13;;;;;;;5.95;1.55;;;4.30;81.60;;;;;;4957474;28;20018;-76
2023/02/02 07:36:39;;;;;;;14.52;1.92;;;4.30;81.50;;;;;;4957185;28;20038;-75
2023/02/02 07:39:06;;;;;;;8.73;2.05;;;4.30;82.30;;;;;;4957456;28;20447;-76
2023/02/02 07:41:33;;;;;;;10.23;2.33;;;4.60;82.80;;;;;;4941509;28;20058;-74
2023/02/02 07:43:59;;;;;;;8.45;2.10;;;4.70;80.90;;;;;;4957033;28;20085;-74
2023/02/02 07:46:25;;;;;;;7.47;2.25;;;4.70;81.50;;;;;;4956747;28;20022;-77
2023/02/02 07:48:55;;;;;;;9.85;2.03;;;4.80;81.20;;;;;;4941519;28;20086;-75
2023/02/02 07:51:22;;;;;;;11.60;2.47;;;4.70;82.00;;;;;;4957120;28;20444;-76
2023/02/02 07:53:51;;;;;;;10.00;2.20;;;4.90;81.50;;;;;;4956793;28;20042;-76
2023/02/02 07:56:22;;;;;;;10.30;2.30;;;4.70;81.80;;;;;;4956941;28;20479;-75
2023/02/02 07:58:50;;;;;;;7.45;1.98;;;4.70;82.80;;;;;;4956965;28;20027;-76
2023/02/02 08:01:16;;;;;;;10.32;2.15;;;4.80;81.90;;;;;;4956799;28;20023;-76
2023/02/02 08:03:42;;;;;;;8.93;2.10;;;5.00;81.60;;;;;;4956853;28;20026;-76
2023/02/02 08:06:13;;;;;;;10.85;2.20;;;4.80;81.00;;;;;;4956709;28;20035;-75
2023/02/02 08:08:39;;;;;;;8.20;2.00;;;4.70;81.20;;;;;;4956664;28;20039;-75
2023/02/02 08:11:08;;;;;;;8.73;2.20;;;4.60;81.90;;;;;;4956836;28;20023;-76
2023/02/02 08:13:34;;;;;;;10.05;2.45;;;4.50;82.50;;;;;;4956580;28;20139;-75
2023/02/02 08:16:01;;;;;;;8.45;2.25;;;4.40;82.90;;;;;;4956517;28;20038;-75
2023/02/02 08:18:27;;;;;;;13.38;3.55;;;4.40;83.60;;;;;;4956598;28;20106;-75
2023/02/02 08:20:52;;;;;;;7.43;3.05;;;4.50;83.40;;;;;;4956702;28;20122;-75
2023/02/02 08:23:22;;;;;;;13.02;3.58;;;4.40;83.20;;;;;;4956662;28;20027;-75
2023/02/02 08:25:49;;;;;;;5.97;2.70;;;4.50;82.90;;;;;;4956465;28;20037;-76
2023/02/02 08:28:15;;;;;;;8.38;2.35;;;4.40;82.90;;;;;;4940031;28;20038;-76
2023/02/02 08:30:41;;;;;;;6.25;2.30;;;4.40;82.60;;;;;;4956358;28;20033;-75
2023/02/02 08:33:07;;;;;;;4.20;1.90;;;4.40;83.50;;;;;;4956597;28;20027;-75
2023/02/02 08:35:32;;;;;;;5.60;2.00;;;4.30;83.40;;;;;;4956561;28;20530;-75
2023/02/02 08:38:01;;;;;;;8.15;2.30;;;4.30;83.50;;;;;;4940166;28;20059;-76
2023/02/02 08:40:27;;;;;;;8.30;2.00;;;4.30;83.40;;;;;;4956503;28;20388;-76
2023/02/02 08:42:53;;;;;;;7.13;2.30;;;4.30;82.50;;;;;;4956318;28;20054;-76
2023/02/02 08:45:19;;;;;;;6.82;2.28;;;4.30;82.30;;;;;;4956767;28;20033;-75
2023/02/02 08:47:45;;;;;;;8.85;2.13;;;4.30;83.00;;;;;;4956729;28;20039;-77
2023/02/02 08:50:11;;;;;;;7.90;2.72;;;4.30;82.00;;;;;;4956345;28;20022;-75
2023/02/02 08:52:36;;;;;;;5.75;1.85;;;4.30;82.60;;;;;;4955921;28;20027;-75
2023/02/02 08:55:03;;;;;;;7.53;1.70;;;4.30;82.30;;;;;;4956223;28;20031;-75
2023/02/02 08:57:31;;;;;;;8.43;1.85;;;4.40;81.50;;;;;;4956464;28;20030;-75
2023/02/02 08:59:57;;;;;;;8.60;2.13;;;4.40;81.20;;;;;;4956291;28;20483;-74
2023/02/02 09:02:23;;;;;;;4.82;1.27;;;4.40;81.10;;;;;;4956728;28;20041;-74
2023/02/02 09:04:49;;;;;;;6.68;1.33;;;4.50;81.00;;;;;;4956453;28;20023;-74
2023/02/02 09:07:14;;;;;;;5.03;2.17;;;4.50;80.20;;;;;;4956215;28;20023;-75
2023/02/02 09:09:40;;;;;;;5.35;1.48;;;4.60;80.40;;;;;;4956299;28;20038;-74
2023/02/02 09:12:06;;;;;;;6.93;1.30;;;4.60;80.90;;;;;;4956393;28;20023;-74
2023/02/02 09:14:31;;;;;;;6.45;2.10;;;4.70;79.60;;;;;;4956231;28;20065;-74
2023/02/02 09:16:57;;;;;;;7.72;1.45;;;4.80;79.50;;;;;;4948115;28;20030;-75
2023/02/02 09:19:22;;;;;;;4.65;1.65;;;4.80;79.00;;;;;;4956074;28;20027;-75
2023/02/02 09:21:49;;;;;;;6.30;1.88;;;4.70;79.20;;;;;;4955944;28;20027;-74
2023/02/02 09:24:14;;;;;;;8.77;1.58;;;4.60;79.70;;;;;;4957166;28;20050;-74
2023/02/02 09:26:41;;;;;;;4.28;1.30;;;4.70;79.40;;;;;;4959821;28;20087;-74
2023/02/02 09:29:11;;;;;;;5.25;1.63;;;4.70;79.20;;;;;;4977004;28;20031;-77
2023/02/02 09:31:37;;;;;;;4.88;1.55;;;4.60;79.30;;;;;;4975588;28;20023;-73
2023/02/02 09:34:05;;;;;;;4.35;1.30;;;4.70;79.60;;;;;;4976291;28;20027;-74
2023/02/02 09:36:31;;;;;;;2.35;1.10;;;4.70;79.20;;;;;;4980919;28;20077;-74
2023/02/02 09:38:57;;;;;;;5.40;1.25;;;4.70;78.70;;;;;;4996457;28;20069;-74
2023/02/02 09:41:38;;;;;;;7.68;1.20;;;4.70;78.50;;;;;;4995904;28;20026;-74
2023/02/02 09:44:27;;;;;;;4.70;1.63;;;4.70;78.30;;;;;;4978856;28;20023;-74
2023/02/02 09:47:10;;;;;;;7.97;1.90;;;4.80;77.90;;;;;;4977810;28;20030;-74
2023/02/02 09:49:51;;;;;;;5.55;1.75;;;4.80;78.30;;;;;;4995703;28;20031;-75
2023/02/02 09:52:35;;;;;;;5.25;1.50;;;4.70;79.00;;;;;;4995822;28;20018;-74
2023/02/02 09:55:10;;;;;;;4.78;1.92;;;4.80;78.80;;;;;;4995759;28;20034;-74
2023/02/02 09:57:43;;;;;;;6.63;1.98;;;4.80;79.50;;;;;;4995815;28;20057;-75
2023/02/02 10:00:29;;;;;;;8.27;1.92;;;4.80;80.20;;;;;;4995900;28;20030;-75
2023/02/02 10:03:00;;;;;;;8.10;2.10;;;4.70;81.40;;;;;;4995989;28;20033;-75
2023/02/02 10:05:43;;;;;;;4.97;1.92;;;4.70;80.90;;;;;;4995742;28;20037;-75
2023/02/02 10:08:17;;;;;;;5.13;1.67;;;4.70;81.50;;;;;;4995121;28;20041;-75
2023/02/02 10:10:45;;;;;;;4.87;1.70;;;4.60;83.00;;;;;;4995584;28;20022;-74
2023/02/02 10:13:16;;;;;;;7.60;2.03;;;4.70;82.70;;;;;;4995796;28;20026;-74
2023/02/02 10:15:49;;;;;;;8.10;2.75;;;4.80;81.80;;;;;;4995583;28;20089;-76
2023/02/02 10:18:44;;;;;;;11.10;2.40;;;4.80;81.60;;;;;;4995465;28;20093;-77
2023/02/02 10:21:15;;;;;;;4.35;1.80;;;5.00;81.20;;;;;;4995447;28;20098;-75
2023/02/02 10:23:44;;;;;;;5.68;1.98;;;4.90;81.70;;;;;;4995291;28;20089;-75
2023/02/02 10:26:13;;;;;;;7.35;2.00;;;5.00;81.30;;;;;;4995014;28;20027;-75
2023/02/02 10:29:04;;;;;;;6.72;1.85;;;5.10;80.70;;;;;;4976976;28;20480;-77
2023/02/02 10:31:54;;;;;;;9.57;1.77;;;5.30;78.90;;;;;;4971196;28;20049;-81
2023/02/02 10:34:26;;;;;;;6.55;1.35;;;5.40;78.10;;;;;;4975817;28;20087;-80
2023/02/02 10:37:19;;;;;;;7.35;1.45;;;5.40;78.10;;;;;;4956850;28;20054;-76
2023/02/02 10:40:10;;;;;;;6.63;1.60;;;5.50;78.00;;;;;;4958016;28;20033;-82
2023/02/02 10:45:42;;;;;;;6.70;1.40;;;5.80;75.90;;;;;;4976759;28;20129;-75
2023/02/02 10:48:16;;;;;;;5.22;1.67;;;5.80;75.80;;;;;;4985180;28;20035;-75
2023/02/02 10:50:56;;;;;;;5.72;2.30;;;5.70;75.60;;;;;;4975797;28;20133;-76
2023/02/02 10:53:26;;;;;;;8.82;2.92;;;5.80;75.50;;;;;;4975487;28;20023;-80
2023/02/02 10:56:13;;;;;;;7.72;2.20;;;5.70;75.90;;;;;;4975355;28;20031;-75
2023/02/02 10:58:53;;;;;;;6.07;2.05;;;5.60;76.70;;;;;;4975045;28;20628;-75
2023/02/02 11:01:21;;;;;;;7.75;2.08;;;5.60;77.00;;;;;;4975228;28;20543;-75
2023/02/02 11:03:47;;;;;;;7.38;2.35;;;5.50;76.70;;;;;;4957872;28;20031;-75
2023/02/02 11:09:00;;;;;;;7.07;1.55;;;5.60;76.50;;;;;;4975110;28;20049;-84
2023/02/02 11:11:32;;;;;;;18.70;3.60;;;5.50;76.80;;;;;;4974925;28;20022;-83
2023/02/02 11:14:03;;;;;;;9.07;2.00;;;5.50;78.00;;;;;;4975575;28;20050;-83
2023/02/02 11:16:33;;;;;;;7.88;1.25;;;5.60;77.40;;;;;;4975357;28;20022;-82
2023/02/02 11:18:59;;;;;;;4.72;1.38;;;5.50;77.00;;;;;;4975284;28;20113;-83
2023/02/02 11:21:31;;;;;;;4.28;1.63;;;5.70;76.70;;;;;;4959296;28;20057;-83
2023/02/02 11:23:59;;;;;;;8.18;1.50;;;5.70;76.80;;;;;;4991741;28;20033;-75
2023/02/02 11:26:26;;;;;;;10.43;1.60;;;5.80;76.40;;;;;;4985375;28;20038;-84
2023/02/02 11:28:55;;;;;;;2.70;1.15;;;5.90;76.10;;;;;;4969497;28;20053;-77
2023/02/02 11:31:32;;;;;;;5.65;0.93;;;5.90;74.90;;;;;;4982006;28;20093;-84
2023/02/02 11:34:17;;;;;;;5.60;1.27;;;5.90;75.20;;;;;;4975667;28;20023;-83
2023/02/02 11:37:14;;;;;;;4.25;1.10;;;6.00;75.30;;;;;;4974836;28;20050;-74
2023/02/02 11:39:43;;;;;;;4.85;1.13;;;6.10;76.50;;;;;;4957197;28;20037;-74
2023/02/02 11:42:17;;;;;;;6.05;1.73;;;6.20;74.00;;;;;;4974745;28;20547;-74
2023/02/02 11:44:49;;;;;;;6.25;1.60;;;6.20;73.80;;;;;;4974278;28;20464;-74
2023/02/02 11:47:33;;;;;;;3.42;0.95;;;6.40;73.10;;;;;;4973676;28;20085;-74
2023/02/02 11:50:03;;;;;;;3.92;1.48;;;6.20;74.10;;;;;;4973321;28;20086;-74
2023/02/02 11:52:31;;;;;;;3.85;1.25;;;6.30;74.50;;;;;;4973430;28;20027;-74
2023/02/02 11:55:13;;;;;;;2.33;1.00;;;6.40;73.10;;;;;;4971654;28;20058;-75
2023/02/02 11:57:39;;;;;;;3.00;1.02;;;6.40;73.80;;;;;;4973118;28;20030;-75
2023/02/02 12:00:07;;;;;;;2.72;1.10;;;6.20;73.70;;;;;;4973353;28;20026;-75
2023/02/02 12:02:33;;;;;;;2.38;0.80;;;6.10;74.00;;;;;;4973479;28;20071;-74
2023/02/02 12:05:10;;;;;;;3.67;1.02;;;6.00;74.20;;;;;;4973477;28;20121;-74
2023/02/02 12:07:36;;;;;;;3.90;1.20;;;6.00;74.20;;;;;;4972942;28;20118;-75
2023/02/02 12:10:19;;;;;;;2.78;1.20;;;5.90;74.30;;;;;;4973571;28;20023;-74
2023/02/02 12:13:16;;;;;;;3.80;1.52;;;5.80;75.00;;;;;;4973331;28;20035;-75
2023/02/02 12:16:01;;;;;;;6.00;1.50;;;5.80;75.10;;;;;;4973532;28;20329;-74
2023/02/02 12:18:32;;;;;;;4.53;1.65;;;5.80;75.10;;;;;;4955932;28;20022;-77
2023/02/02 12:21:06;;;;;;;5.88;1.20;;;5.80;75.40;;;;;;4973924;28;20471;-76
2023/02/02 12:23:35;;;;;;;4.72;1.10;;;5.90;74.50;;;;;;4973434;28;20098;-74
2023/02/02 12:26:27;;;;;;;3.30;1.23;;;5.90;74.50;;;;;;4976355;28;20102;-75
2023/02/02 12:29:19;;;;;;;5.15;1.25;;;5.80;75.50;;;;;;4954166;29;20452;-75
2023/02/02 12:32:40;;;;;;;2.95;1.13;;;5.80;74.80;;;;;;4954030;29;20164;-78
2023/02/02 12:35:24;;;;;;;5.10;1.52;;;5.70;74.50;;;;;;4905846;29;20056;-74
2023/02/02 12:38:07;;;;;;;4.15;1.60;;;5.70;74.30;;;;;;4974215;28;20567;-74
2023/02/02 12:40:57;;;;;;;3.85;1.20;;;5.70;74.80;;;;;;4974855;28;20388;-75
2023/02/02 12:43:39;;;;;;;7.82;1.67;;;5.70;74.30;;;;;;4973535;28;20030;-74
2023/02/02 12:46:27;;;;;;;8.20;1.60;;;5.80;73.70;;;;;;4973448;28;20077;-75
2023/02/02 12:49:00;;;;;;;6.82;1.85;;;6.00;73.60;;;;;;4973307;28;20031;-75
2023/02/02 12:51:44;;;;;;;10.23;1.77;;;6.20;72.80;;;;;;4973498;28;20095;-75
2023/02/02 12:54:47;;;;;;;6.07;1.50;;;6.40;70.80;;;;;;4973603;28;20030;-76
2023/02/02 12:57:27;;;;;;;9.18;1.38;;;6.50;70.30;;;;;;4973666;28;20019;-75
2023/02/02 13:00:12;;;;;;;3.80;1.00;;;6.70;69.60;;;;;;4958344;28;20062;-74
2023/02/02 13:02:47;;;;;;;4.80;1.83;;;7.00;67.50;;;;;;4977454;28;20082;-74
2023/02/02 13:05:41;;;;;;;10.32;1.83;;;7.10;66.60;;;;;;4977314;28;20042;-76
2023/02/02 13:08:16;;;;;;;4.53;1.35;;;7.30;66.10;;;;;;4977412;28;20035;-75
2023/02/02 13:10:46;;;;;;;4.53;1.35;;;7.60;65.10;;;;;;4977387;28;20049;-74
2023/02/02 13:13:19;;;;;;;9.85;3.13;;;7.80;63.00;;;;;;4977276;28;20152;-74
2023/02/02 13:15:57;;;;;;;6.70;1.60;;;7.70;63.20;;;;;;4977265;28;20033;-75
2023/02/02 13:18:28;;;;;;;7.05;1.70;;;7.80;62.00;;;;;;4977128;28;20019;-74
2023/02/02 13:21:05;;;;;;;9.68;1.52;;;7.40;63.80;;;;;;4977102;28;20035;-74
2023/02/02 13:23:42;;;;;;;12.23;1.70;;;7.50;63.50;;;;;;4977002;28;20030;-75
2023/02/02 13:26:18;;;;;;;7.15;1.58;;;7.50;62.90;;;;;;4976905;28;20026;-76
2023/02/02 13:29:05;;;;;;;6.28;1.75;;;7.60;63.80;;;;;;4976940;28;20117;-75